sensor_id;sensor_type;location;lat;lon;timestamp;temperature;humidity
31799;DHT22;18374;51.136;3.502;2023-02-01T00:01:19;5.60;99.90
31799;DHT22;18374;51.136;3.502;2023-02-01T00:03:47;5.60;99.90
31799;DHT22;18374;51.136;3.502;2023-02-01T00:06:15;5.50;99.90
31799;DHT22;18374;51.136;3.502;2023-02-01T00:08:43;5.50;99.90
31799;DHT22;18374;51.136;3.502;2023-02-01T00:11:11;5.60;99.90
31799;DHT22;18374;51.136;3.502;2023-02-01T00:13:41;5.60;99.90
31799;DHT22;18374;51.136;3.502;2023-02-01T00:16:17;5.50;99.90
31799;DHT22;18374;51.136;3.502;2023-02-01T00:18:49;5.50;99.90
31799;DHT22;18374;51.136;3.502;2023-02-01T00:21:20;5.40;99.90
31799;DHT22;18374;51.136;3.502;2023-02-01T00:23:48;5.40;99.90
31799;DHT22;18374;51.136;3.502;2023-02-01T00:26:33;5.40;99.90
31799;DHT22;18374;51.136;3.502;2023-02-01T00:29:04;5.40;99.90
31799;DHT22;18374;51.136;3.502;2023-02-01T00:31:33;5.30;99.90
31799;DHT22;18374;51.136;3.502;2023-02-01T00:34:01;5.30;99.90
31799;DHT22;18374;51.136;3.502;2023-02-01T00:36:29;5.30;99.90
31799;DHT22;18374;51.136;3.502;2023-02-01T00:38:57;5.20;99.90
31799;DHT22;18374;51.136;3.502;2023-02-01T00:41:25;5.20;99.90
31799;DHT22;18374;51.136;3.502;2023-02-01T00:43:53;5.20;99.90
31799;DHT22;18374;51.136;3.502;2023-02-01T00:46:21;5.10;99.90
31799;DHT22;18374;51.136;3.502;2023-02-01T00:48:49;5.10;99.90
31799;DHT22;18374;51.136;3.502;2023-02-01T00:51:20;5.10;99.90
31799;DHT22;18374;51.136;3.502;2023-02-01T00:53:50;5.00;99.90
31799;DHT22;18374;51.136;3.502;2023-02-01T00:56:18;5.00;99.90
31799;DHT22;18374;51.136;3.502;2023-02-01T00:58:46;4.90;99.90
31799;DHT22;18374;51.136;3.502;2023-02-01T01:01:26;4.90;99.90
31799;DHT22;18374;51.136;3.502;2023-02-01T01:03:59;4.90;99.90
31799;DHT22;18374;51.136;3.502;2023-02-01T01:06:30;4.90;99.90
31799;DHT22;18374;51.136;3.502;2023-02-01T01:09:01;4.90;99.90
31799;DHT22;18374;51.136;3.502;2023-02-01T01:11:34;4.80;99.90
31799;DHT22;18374;51.136;3.502;2023-02-01T01:14:05;4.70;99.90
31799;DHT22;18374;51.136;3.502;2023-02-01T01:16:35;4.70;99.90
31799;DHT22;18374;51.136;3.502;2023-02-01T01:19:03;4.60;99.90
31799;DHT22;18374;51.136;3.502;2023-02-01T01:21:31;4.70;99.90
31799;DHT22;18374;51.136;3.502;2023-02-01T01:23:59;4.70;99.90
31799;DHT22;18374;51.136;3.502;2023-02-01T01:26:28;4.70;99.90
31799;DHT22;18374;51.136;3.502;2023-02-01T01:28:58;4.70;99.90
31799;DHT22;18374;51.136;3.502;2023-02-01T01:31:28;4.70;99.90
31799;DHT22;18374;51.136;3.502;2023-02-01T01:33:58;4.70;99.90
31799;DHT22;18374;51.136;3.502;2023-02-01T01:36:28;4.70;99.90
31799;DHT22;18374;51.136;3.502;2023-02-01T01:38:58;4.70;99.90
31799;DHT22;18374;51.136;3.502;2023-02-01T01:41:29;4.70;99.90
31799;DHT22;18374;51.136;3.502;2023-02-01T01:44:06;4.70;99.90
31799;DHT22;18374;51.136;3.502;2023-02-01T01:47:14;4.70;99.90
31799;DHT22;18374;51.136;3.502;2023-02-01T01:49:42;4.60;99.90
31799;DHT22;18374;51.136;3.502;2023-02-01T01:52:14;4.60;99.90
31799;DHT22;18374;51.136;3.502;2023-02-01T01:54:45;4.60;99.90
31799;DHT22;18374;51.136;3.502;2023-02-01T01:57:21;4.60;99.90
31799;DHT22;18374;51.136;3.502;2023-02-01T02:00:01;4.70;99.90
31799;DHT22;18374;51.136;3.502;2023-02-01T02:02:41;4.70;99.90
31799;DHT22;18374;51.136;3.502;2023-02-01T02:05:11;4.70;99.90
31799;DHT22;18374;51.136;3.502;2023-02-01T02:07:43;4.70;99.90
31799;DHT22;18374;51.136;3.502;2023-02-01T02:10:15;4.70;99.90
31799;DHT22;18374;51.136;3.502;2023-02-01T02:12:45;4.70;99.90
31799;DHT22;18374;51.136;3.502;2023-02-01T02:15:16;4.70;99.90
31799;DHT22;18374;51.136;3.502;2023-02-01T02:18:09;4.70;99.90
31799;DHT22;18374;51.136;3.502;2023-02-01T02:30:06;4.80;99.90
31799;DHT22;18374;51.136;3.502;2023-02-01T02:42:05;5.00;99.90
31799;DHT22;18374;51.136;3.502;2023-02-01T02:48:08;5.00;99.90
31799;DHT22;18374;51.136;3.502;2023-02-01T02:50:58;5.10;99.90
31799;DHT22;18374;51.136;3.502;2023-02-01T02:57:07;5.20;99.90
31799;DHT22;18374;51.136;3.502;2023-02-01T03:00:00;5.20;99.90
31799;DHT22;18374;51.136;3.502;2023-02-01T03:02:51;5.20;99.90
31799;DHT22;18374;51.136;3.502;2023-02-01T03:05:42;5.20;99.90
31799;DHT22;18374;51.136;3.502;2023-02-01T03:08:15;5.20;99.90
31799;DHT22;18374;51.136;3.502;2023-02-01T03:13:51;5.20;99.90
31799;DHT22;18374;51.136;3.502;2023-02-01T03:16:31;5.30;99.90
31799;DHT22;18374;51.136;3.502;2023-02-01T03:19:35;5.40;99.90
31799;DHT22;18374;51.136;3.502;2023-02-01T03:22:07;5.40;99.90
31799;DHT22;18374;51.136;3.502;2023-02-01T03:24:56;5.40;99.90
31799;DHT22;18374;51.136;3.502;2023-02-01T03:27:56;5.30;99.90
31799;DHT22;18374;51.136;3.502;2023-02-01T03:30:36;5.30;99.90
31799;DHT22;18374;51.136;3.502;2023-02-01T03:33:09;5.40;99.90
31799;DHT22;18374;51.136;3.502;2023-02-01T03:42:02;5.30;99.90
31799;DHT22;18374;51.136;3.502;2023-02-01T03:44:37;5.30;99.90
31799;DHT22;18374;51.136;3.502;2023-02-01T03:47:12;5.40;99.90
31799;DHT22;18374;51.136;3.502;2023-02-01T03:49:49;5.40;99.90
31799;DHT22;18374;51.136;3.502;2023-02-01T03:52:24;5.40;99.90
31799;DHT22;18374;51.136;3.502;2023-02-01T03:54:58;5.30;99.90
31799;DHT22;18374;51.136;3.502;2023-02-01T03:57:31;5.30;99.90
31799;DHT22;18374;51.136;3.502;2023-02-01T04:00:16;5.30;99.90
31799;DHT22;18374;51.136;3.502;2023-02-01T04:02:45;5.20;99.90
31799;DHT22;18374;51.136;3.502;2023-02-01T04:05:12;5.20;99.90
31799;DHT22;18374;51.136;3.502;2023-02-01T04:07:47;5.20;99.90
31799;DHT22;18374;51.136;3.502;2023-02-01T04:10:18;5.20;99.90
31799;DHT22;18374;51.136;3.502;2023-02-01T04:12:46;5.10;99.90
31799;DHT22;18374;51.136;3.502;2023-02-01T04:15:14;5.30;99.90
31799;DHT22;18374;51.136;3.502;2023-02-01T04:17:42;5.30;99.90
31799;DHT22;18374;51.136;3.502;2023-02-01T04:20:10;5.20;99.90
31799;DHT22;18374;51.136;3.502;2023-02-01T04:22:38;5.20;99.90
31799;DHT22;18374;51.136;3.502;2023-02-01T04:25:06;5.20;99.90
31799;DHT22;18374;51.136;3.502;2023-02-01T04:27:35;5.40;99.90
31799;DHT22;18374;51.136;3.502;2023-02-01T04:30:04;5.40;99.90
31799;DHT22;18374;51.136;3.502;2023-02-01T04:32:37;5.40;99.90
31799;DHT22;18374;51.136;3.502;2023-02-01T04:35:07;5.50;99.90
31799;DHT22;18374;51.136;3.502;2023-02-01T04:37:35;5.40;99.90
31799;DHT22;18374;51.136;3.502;2023-02-01T04:40:06;5.40;99.90
31799;DHT22;18374;51.136;3.502;2023-02-01T04:42:34;5.40;99.90
31799;DHT22;18374;51.136;3.502;2023-02-01T04:45:02;5.40;99.90
31799;DHT22;18374;51.136;3.502;2023-02-01T04:47:31;5.40;99.90
31799;DHT22;18374;51.136;3.502;2023-02-01T04:49:59;5.40;99.90
31799;DHT22;18374;51.136;3.502;2023-02-01T04:52:27;5.30;99.90
31799;DHT22;18374;51.136;3.502;2023-02-01T04:54:54;5.30;99.90
31799;DHT22;18374;51.136;3.502;2023-02-01T04:57:26;5.30;99.90
31799;DHT22;18374;51.136;3.502;2023-02-01T04:59:55;5.30;99.90
31799;DHT22;18374;51.136;3.502;2023-02-01T05:02:23;5.40;99.90
31799;DHT22;18374;51.136;3.502;2023-02-01T05:04:51;5.30;99.90
31799;DHT22;18374;51.136;3.502;2023-02-01T05:07:18;5.40;99.90
31799;DHT22;18374;51.136;3.502;2023-02-01T05:09:46;5.30;99.90
31799;DHT22;18374;51.136;3.502;2023-02-01T05:12:14;5.20;99.90
31799;DHT22;18374;51.136;3.502;2023-02-01T05:15:00;5.30;99.90
31799;DHT22;18374;51.136;3.502;2023-02-01T05:17:28;5.50;99.90
31799;DHT22;18374;51.136;3.502;2023-02-01T05:19:56;5.50;99.90
31799;DHT22;18374;51.136;3.502;2023-02-01T05:22:24;5.50;99.90
31799;DHT22;18374;51.136;3.502;2023-02-01T05:24:52;5.50;99.90
31799;DHT22;18374;51.136;3.502;2023-02-01T05:27:19;5.50;99.90
31799;DHT22;18374;51.136;3.502;2023-02-01T05:29:47;5.40;99.90
31799;DHT22;18374;51.136;3.502;2023-02-01T05:32:15;5.40;99.90
31799;DHT22;18374;51.136;3.502;2023-02-01T05:34:49;5.40;99.90
31799;DHT22;18374;51.136;3.502;2023-02-01T05:37:17;5.40;99.90
31799;DHT22;18374;51.136;3.502;2023-02-01T05:39:44;5.30;99.90
31799;DHT22;18374;51.136;3.502;2023-02-01T05:42:13;5.30;99.90
31799;DHT22;18374;51.136;3.502;2023-02-01T05:44:41;5.20;99.90
31799;DHT22;18374;51.136;3.502;2023-02-01T05:47:09;5.20;99.90
31799;DHT22;18374;51.136;3.502;2023-02-01T05:49:36;5.30;99.90
31799;DHT22;18374;51.136;3.502;2023-02-01T05:52:04;5.20;99.90
31799;DHT22;18374;51.136;3.502;2023-02-01T05:54:33;5.20;99.90
31799;DHT22;18374;51.136;3.502;2023-02-01T05:57:03;5.20;99.90
31799;DHT22;18374;51.136;3.502;2023-02-01T05:59:30;5.20;99.90
31799;DHT22;18374;51.136;3.502;2023-02-01T06:01:58;5.20;99.90
31799;DHT22;18374;51.136;3.502;2023-02-01T06:04:26;5.20;99.90
31799;DHT22;18374;51.136;3.502;2023-02-01T06:06:54;5.10;99.90
31799;DHT22;18374;51.136;3.502;2023-02-01T06:09:22;5.20;99.90
31799;DHT22;18374;51.136;3.502;2023-02-01T06:11:49;5.20;99.90
31799;DHT22;18374;51.136;3.502;2023-02-01T06:14:17;5.20;99.90
31799;DHT22;18374;51.136;3.502;2023-02-01T06:16:45;5.10;99.90
31799;DHT22;18374;51.136;3.502;2023-02-01T06:19:13;5.00;99.90
31799;DHT22;18374;51.136;3.502;2023-02-01T06:21:41;4.90;99.90
31799;DHT22;18374;51.136;3.502;2023-02-01T06:24:09;4.80;99.90
31799;DHT22;18374;51.136;3.502;2023-02-01T06:26:37;4.70;99.90
31799;DHT22;18374;51.136;3.502;2023-02-01T06:29:07;4.60;99.90
31799;DHT22;18374;51.136;3.502;2023-02-01T06:31:37;4.60;99.90
31799;DHT22;18374;51.136;3.502;2023-02-01T06:34:04;4.60;99.90
31799;DHT22;18374;51.136;3.502;2023-02-01T06:36:33;4.60;99.90
31799;DHT22;18374;51.136;3.502;2023-02-01T06:39:02;4.70;99.90
31799;DHT22;18374;51.136;3.502;2023-02-01T06:41:30;4.80;99.90
31799;DHT22;18374;51.136;3.502;2023-02-01T06:43:57;4.70;99.90
31799;DHT22;18374;51.136;3.502;2023-02-01T06:46:25;4.70;99.90
31799;DHT22;18374;51.136;3.502;2023-02-01T06:48:53;4.70;99.90
31799;DHT22;18374;51.136;3.502;2023-02-01T06:51:24;4.60;99.90
31799;DHT22;18374;51.136;3.502;2023-02-01T06:53:53;4.50;99.90
31799;DHT22;18374;51.136;3.502;2023-02-01T06:56:21;4.50;99.90
31799;DHT22;18374;51.136;3.502;2023-02-01T06:58:49;4.40;99.90
31799;DHT22;18374;51.136;3.502;2023-02-01T07:01:17;4.40;99.90
31799;DHT22;18374;51.136;3.502;2023-02-01T07:03:49;4.40;99.90
31799;DHT22;18374;51.136;3.502;2023-02-01T07:06:18;4.40;99.90
31799;DHT22;18374;51.136;3.502;2023-02-01T07:08:46;4.40;99.90
31799;DHT22;18374;51.136;3.502;2023-02-01T07:11:15;4.40;99.90
31799;DHT22;18374;51.136;3.502;2023-02-01T07:13:45;4.40;99.90
31799;DHT22;18374;51.136;3.502;2023-02-01T07:16:16;4.40;99.90
31799;DHT22;18374;51.136;3.502;2023-02-01T07:18:46;4.40;99.90
31799;DHT22;18374;51.136;3.502;2023-02-01T07:21:14;4.40;99.90
31799;DHT22;18374;51.136;3.502;2023-02-01T07:23:42;4.50;99.90
31799;DHT22;18374;51.136;3.502;2023-02-01T07:26:12;4.50;99.90
31799;DHT22;18374;51.136;3.502;2023-02-01T07:28:41;4.60;99.90
31799;DHT22;18374;51.136;3.502;2023-02-01T07:31:14;4.70;99.90
31799;DHT22;18374;51.136;3.502;2023-02-01T07:33:46;4.70;99.90
31799;DHT22;18374;51.136;3.502;2023-02-01T07:36:15;4.80;99.90
31799;DHT22;18374;51.136;3.502;2023-02-01T07:38:44;4.80;99.90
31799;DHT22;18374;51.136;3.502;2023-02-01T07:41:14;4.80;99.90
31799;DHT22;18374;51.136;3.502;2023-02-01T07:43:43;4.80;99.90
31799;DHT22;18374;51.136;3.502;2023-02-01T07:46:11;4.80;99.90
31799;DHT22;18374;51.136;3.502;2023-02-01T07:48:39;4.90;99.90
31799;DHT22;18374;51.136;3.502;2023-02-01T07:51:12;4.90;99.90
31799;DHT22;18374;51.136;3.502;2023-02-01T07:53:42;5.00;99.90
31799;DHT22;18374;51.136;3.502;2023-02-01T07:56:18;5.10;99.90
31799;DHT22;18374;51.136;3.502;2023-02-01T07:58:53;5.10;99.90
31799;DHT22;18374;51.136;3.502;2023-02-01T08:01:25;5.10;99.90
31799;DHT22;18374;51.136;3.502;2023-02-01T08:03:58;5.10;99.90
31799;DHT22;18374;51.136;3.502;2023-02-01T08:06:29;5.10;99.90
31799;DHT22;18374;51.136;3.502;2023-02-01T08:08:59;5.20;99.90
31799;DHT22;18374;51.136;3.502;2023-02-01T08:11:27;5.20;99.90
31799;DHT22;18374;51.136;3.502;2023-02-01T08:13:57;5.30;99.90
31799;DHT22;18374;51.136;3.502;2023-02-01T08:16:30;5.30;99.90
31799;DHT22;18374;51.136;3.502;2023-02-01T08:18:58;5.40;99.90
31799;DHT22;18374;51.136;3.502;2023-02-01T08:21:28;5.40;99.90
31799;DHT22;18374;51.136;3.502;2023-02-01T08:24:05;5.40;99.90
31799;DHT22;18374;51.136;3.502;2023-02-01T08:26:34;5.40;99.90
31799;DHT22;18374;51.136;3.502;2023-02-01T08:29:04;5.40;99.90
31799;DHT22;18374;51.136;3.502;2023-02-01T08:31:32;5.50;99.90
31799;DHT22;18374;51.136;3.502;2023-02-01T08:34:02;5.60;99.90
31799;DHT22;18374;51.136;3.502;2023-02-01T08:36:37;5.70;99.90
31799;DHT22;18374;51.136;3.502;2023-02-01T08:39:05;6.00;99.90
31799;DHT22;18374;51.136;3.502;2023-02-01T08:41:38;6.30;99.90
31799;DHT22;18374;51.136;3.502;2023-02-01T08:44:09;6.40;99.90
31799;DHT22;18374;51.136;3.502;2023-02-01T08:46:38;6.40;99.90
31799;DHT22;18374;51.136;3.502;2023-02-01T08:49:11;6.50;99.90
31799;DHT22;18374;51.136;3.502;2023-02-01T08:51:41;6.70;99.90
31799;DHT22;18374;51.136;3.502;2023-02-01T08:54:13;6.80;99.90
31799;DHT22;18374;51.136;3.502;2023-02-01T08:56:51;6.80;99.90
31799;DHT22;18374;51.136;3.502;2023-02-01T08:59:22;7.00;99.90
31799;DHT22;18374;51.136;3.502;2023-02-01T09:02:04;7.00;99.90
31799;DHT22;18374;51.136;3.502;2023-02-01T09:04:33;7.10;99.90
31799;DHT22;18374;51.136;3.502;2023-02-01T09:07:01;7.10;99.90
31799;DHT22;18374;51.136;3.502;2023-02-01T09:09:29;7.10;99.90
31799;DHT22;18374;51.136;3.502;2023-02-01T09:11:57;7.20;99.90
31799;DHT22;18374;51.136;3.502;2023-02-01T09:14:25;7.20;99.90
31799;DHT22;18374;51.136;3.502;2023-02-01T09:16:52;7.20;99.90
31799;DHT22;18374;51.136;3.502;2023-02-01T09:19:25;7.10;99.90
31799;DHT22;18374;51.136;3.502;2023-02-01T09:21:58;7.20;99.90
31799;DHT22;18374;51.136;3.502;2023-02-01T09:24:26;7.20;99.90
31799;DHT22;18374;51.136;3.502;2023-02-01T09:27:05;7.20;99.90
31799;DHT22;18374;51.136;3.502;2023-02-01T09:29:37;7.10;99.90
31799;DHT22;18374;51.136;3.502;2023-02-01T09:32:12;7.20;99.90
31799;DHT22;18374;51.136;3.502;2023-02-01T09:34:40;7.30;99.90
31799;DHT22;18374;51.136;3.502;2023-02-01T09:37:08;7.40;99.90
31799;DHT22;18374;51.136;3.502;2023-02-01T09:39:39;7.50;99.90
31799;DHT22;18374;51.136;3.502;2023-02-01T09:42:21;7.50;99.90
31799;DHT22;18374;51.136;3.502;2023-02-01T09:45:10;7.60;99.90
31799;DHT22;18374;51.136;3.502;2023-02-01T09:51:04;7.80;99.90
31799;DHT22;18374;51.136;3.502;2023-02-01T09:53:48;7.80;99.90
31799;DHT22;18374;51.136;3.502;2023-02-01T09:56:38;7.90;99.90
31799;DHT22;18374;51.136;3.502;2023-02-01T09:59:49;7.90;99.90
31799;DHT22;18374;51.136;3.502;2023-02-01T10:02:28;7.90;99.90
31799;DHT22;18374;51.136;3.502;2023-02-01T10:05:14;7.90;99.90
31799;DHT22;18374;51.136;3.502;2023-02-01T10:07:50;7.90;99.90
31799;DHT22;18374;51.136;3.502;2023-02-01T10:10:49;7.90;99.90
31799;DHT22;18374;51.136;3.502;2023-02-01T10:13:33;7.90;99.90
31799;DHT22;18374;51.136;3.502;2023-02-01T10:16:47;8.00;99.90
31799;DHT22;18374;51.136;3.502;2023-02-01T10:22:33;8.30;99.90
31799;DHT22;18374;51.136;3.502;2023-02-01T10:25:36;8.30;99.90
31799;DHT22;18374;51.136;3.502;2023-02-01T10:28:32;8.40;99.90
31799;DHT22;18374;51.136;3.502;2023-02-01T10:31:08;8.40;99.90
31799;DHT22;18374;51.136;3.502;2023-02-01T10:33:43;8.30;99.90
31799;DHT22;18374;51.136;3.502;2023-02-01T10:36:28;8.30;99.90
31799;DHT22;18374;51.136;3.502;2023-02-01T10:39:06;8.40;99.90
31799;DHT22;18374;51.136;3.502;2023-02-01T10:41:39;8.40;99.90
31799;DHT22;18374;51.136;3.502;2023-02-01T10:44:15;8.60;99.90
31799;DHT22;18374;51.136;3.502;2023-02-01T10:46:45;8.70;99.90
31799;DHT22;18374;51.136;3.502;2023-02-01T10:49:24;8.90;99.90
31799;DHT22;18374;51.136;3.502;2023-02-01T10:54:36;9.10;99.90
31799;DHT22;18374;51.136;3.502;2023-02-01T10:57:21;9.30;99.90
31799;DHT22;18374;51.136;3.502;2023-02-01T10:59:52;9.40;99.90
31799;DHT22;18374;51.136;3.502;2023-02-01T11:02:30;9.40;99.90
31799;DHT22;18374;51.136;3.502;2023-02-01T11:05:07;9.40;99.90
31799;DHT22;18374;51.136;3.502;2023-02-01T11:07:39;9.30;99.90
31799;DHT22;18374;51.136;3.502;2023-02-01T11:10:34;9.20;99.90
31799;DHT22;18374;51.136;3.502;2023-02-01T11:13:17;9.20;99.90
31799;DHT22;18374;51.136;3.502;2023-02-01T11:15:46;9.30;99.90
31799;DHT22;18374;51.136;3.502;2023-02-01T11:18:37;9.40;99.90
31799;DHT22;18374;51.136;3.502;2023-02-01T11:21:06;9.50;99.90
31799;DHT22;18374;51.136;3.502;2023-02-01T11:23:44;9.60;99.90
31799;DHT22;18374;51.136;3.502;2023-02-01T11:26:20;9.40;99.90
31799;DHT22;18374;51.136;3.502;2023-02-01T11:28:58;9.40;99.90
31799;DHT22;18374;51.136;3.502;2023-02-01T11:31:35;9.30;99.90
31799;DHT22;18374;51.136;3.502;2023-02-01T11:34:11;9.50;99.90
31799;DHT22;18374;51.136;3.502;2023-02-01T11:36:42;9.80;99.90
31799;DHT22;18374;51.136;3.502;2023-02-01T11:42:04;9.90;99.90
31799;DHT22;18374;51.136;3.502;2023-02-01T11:44:38;9.90;99.90
31799;DHT22;18374;51.136;3.502;2023-02-01T11:49:56;10.00;99.90
31799;DHT22;18374;51.136;3.502;2023-02-01T12:01:10;9.90;99.90
31799;DHT22;18374;51.136;3.502;2023-02-01T12:07:09;10.20;99.90
31799;DHT22;18374;51.136;3.502;2023-02-01T12:10:46;10.20;99.90
31799;DHT22;18374;51.136;3.502;2023-02-01T12:13:20;10.10;99.90
31799;DHT22;18374;51.136;3.502;2023-02-01T12:16:13;10.20;99.90
31799;DHT22;18374;51.136;3.502;2023-02-01T12:31:46;9.90;99.90
31799;DHT22;18374;51.136;3.502;2023-02-01T12:43:09;10.00;99.90
31799;DHT22;18374;51.136;3.502;2023-02-01T12:45:50;10.10;99.90
31799;DHT22;18374;51.136;3.502;2023-02-01T12:48:37;10.00;99.90
31799;DHT22;18374;51.136;3.502;2023-02-01T12:51:20;10.10;99.90
31799;DHT22;18374;51.136;3.502;2023-02-01T12:53:52;10.20;99.90
31799;DHT22;18374;51.136;3.502;2023-02-01T13:02:35;10.20;99.90
31799;DHT22;18374;51.136;3.502;2023-02-01T13:05:17;10.00;99.90
31799;DHT22;18374;51.136;3.502;2023-02-01T13:07:57;10.10;99.90
31799;DHT22;18374;51.136;3.502;2023-02-01T13:10:48;9.90;99.90
31799;DHT22;18374;51.136;3.502;2023-02-01T13:13:35;9.70;99.90
31799;DHT22;18374;51.136;3.502;2023-02-01T13:16:49;9.90;99.90
31799;DHT22;18374;51.136;3.502;2023-02-01T13:19:49;9.90;99.90
31799;DHT22;18374;51.136;3.502;2023-02-01T13:25:31;9.80;99.90
31799;DHT22;18374;51.136;3.502;2023-02-01T13:28:25;9.80;99.90
31799;DHT22;18374;51.136;3.502;2023-02-01T13:42:54;9.70;99.90
31799;DHT22;18374;51.136;3.502;2023-02-01T13:45:30;9.80;99.90
31799;DHT22;18374;51.136;3.502;2023-02-01T13:48:03;9.70;99.90
31799;DHT22;18374;51.136;3.502;2023-02-01T13:50:39;9.50;99.90
31799;DHT22;18374;51.136;3.502;2023-02-01T13:55:59;9.40;99.90
31799;DHT22;18374;51.136;3.502;2023-02-01T13:58:35;9.30;99.90
31799;DHT22;18374;51.136;3.502;2023-02-01T14:03:56;9.40;99.90
31799;DHT22;18374;51.136;3.502;2023-02-01T14:11:48;9.20;99.90
31799;DHT22;18374;51.136;3.502;2023-02-01T14:19:33;9.00;99.90
31799;DHT22;18374;51.136;3.502;2023-02-01T14:24:55;8.90;99.90
31799;DHT22;18374;51.136;3.502;2023-02-01T14:27:29;8.90;99.90
31799;DHT22;18374;51.136;3.502;2023-02-01T14:30:11;8.80;99.90
31799;DHT22;18374;51.136;3.502;2023-02-01T14:32:45;8.80;99.90
31799;DHT22;18374;51.136;3.502;2023-02-01T14:35:19;8.80;99.90
31799;DHT22;18374;51.136;3.502;2023-02-01T14:37:58;8.80;99.90
31799;DHT22;18374;51.136;3.502;2023-02-01T14:40:28;8.80;99.90
31799;DHT22;18374;51.136;3.502;2023-02-01T14:42:56;8.70;99.90
31799;DHT22;18374;51.136;3.502;2023-02-01T14:53:18;8.70;99.90
31799;DHT22;18374;51.136;3.502;2023-02-01T15:06:43;8.60;99.90
31799;DHT22;18374;51.136;3.502;2023-02-01T15:09:28;8.60;99.90
31799;DHT22;18374;51.136;3.502;2023-02-01T15:14:44;8.70;99.90
31799;DHT22;18374;51.136;3.502;2023-02-01T15:19:55;8.60;99.90
31799;DHT22;18374;51.136;3.502;2023-02-01T15:22:27;8.60;99.90
31799;DHT22;18374;51.136;3.502;2023-02-01T15:24:58;8.60;99.90
31799;DHT22;18374;51.136;3.502;2023-02-01T15:27:27;8.60;99.90
31799;DHT22;18374;51.136;3.502;2023-02-01T15:30:19;8.60;99.90
31799;DHT22;18374;51.136;3.502;2023-02-01T15:32:50;8.60;99.90
31799;DHT22;18374;51.136;3.502;2023-02-01T15:35:43;8.50;99.90
31799;DHT22;18374;51.136;3.502;2023-02-01T15:41:11;8.50;99.90
31799;DHT22;18374;51.136;3.502;2023-02-01T15:46:36;8.50;99.90
31799;DHT22;18374;51.136;3.502;2023-02-01T15:49:20;8.50;99.90
31799;DHT22;18374;51.136;3.502;2023-02-01T15:51:58;8.50;99.90
31799;DHT22;18374;51.136;3.502;2023-02-01T15:54:46;8.40;99.90
31799;DHT22;18374;51.136;3.502;2023-02-01T15:57:27;8.40;99.90
31799;DHT22;18374;51.136;3.502;2023-02-01T15:59:59;8.40;99.90
31799;DHT22;18374;51.136;3.502;2023-02-01T16:02:51;8.50;99.90
31799;DHT22;18374;51.136;3.502;2023-02-01T16:05:40;8.40;99.90
31799;DHT22;18374;51.136;3.502;2023-02-01T16:08:19;8.40;99.90
31799;DHT22;18374;51.136;3.502;2023-02-01T16:10:58;8.40;99.90
31799;DHT22;18374;51.136;3.502;2023-02-01T16:13:36;8.40;99.90
31799;DHT22;18374;51.136;3.502;2023-02-01T16:16:09;8.40;99.90
31799;DHT22;18374;51.136;3.502;2023-02-01T16:18:44;8.40;99.90
31799;DHT22;18374;51.136;3.502;2023-02-01T16:21:12;8.40;99.90
31799;DHT22;18374;51.136;3.502;2023-02-01T16:23:40;8.40;99.90
31799;DHT22;18374;51.136;3.502;2023-02-01T16:26:10;8.40;99.90
31799;DHT22;18374;51.136;3.502;2023-02-01T16:28:38;8.40;99.90
31799;DHT22;18374;51.136;3.502;2023-02-01T16:31:14;8.40;99.90
31799;DHT22;18374;51.136;3.502;2023-02-01T16:33:49;8.40;99.90
31799;DHT22;18374;51.136;3.502;2023-02-01T16:36:18;8.30;99.90
31799;DHT22;18374;51.136;3.502;2023-02-01T16:38:46;8.30;99.90
31799;DHT22;18374;51.136;3.502;2023-02-01T16:41:18;8.40;99.90
31799;DHT22;18374;51.136;3.502;2023-02-01T16:43:50;8.30;99.90
31799;DHT22;18374;51.136;3.502;2023-02-01T16:46:22;8.30;99.90
31799;DHT22;18374;51.136;3.502;2023-02-01T16:48:55;8.30;99.90
31799;DHT22;18374;51.136;3.502;2023-02-01T16:51:29;8.30;99.90
31799;DHT22;18374;51.136;3.502;2023-02-01T16:54:01;8.30;99.90
31799;DHT22;18374;51.136;3.502;2023-02-01T16:56:31;8.30;99.90
31799;DHT22;18374;51.136;3.502;2023-02-01T16:59:01;8.30;99.90
31799;DHT22;18374;51.136;3.502;2023-02-01T17:01:31;8.30;99.90
31799;DHT22;18374;51.136;3.502;2023-02-01T17:03:59;8.30;99.90
31799;DHT22;18374;51.136;3.502;2023-02-01T17:06:27;8.20;99.90
31799;DHT22;18374;51.136;3.502;2023-02-01T17:08:56;8.20;99.90
31799;DHT22;18374;51.136;3.502;2023-02-01T17:11:29;8.30;99.90
31799;DHT22;18374;51.136;3.502;2023-02-01T17:14:18;8.30;99.90
31799;DHT22;18374;51.136;3.502;2023-02-01T17:16:49;8.20;99.90
31799;DHT22;18374;51.136;3.502;2023-02-01T17:19:21;8.30;99.90
31799;DHT22;18374;51.136;3.502;2023-02-01T17:21:54;8.30;99.90
31799;DHT22;18374;51.136;3.502;2023-02-01T17:24:28;8.30;99.90
31799;DHT22;18374;51.136;3.502;2023-02-01T17:27:15;8.20;99.90
31799;DHT22;18374;51.136;3.502;2023-02-01T17:29:54;8.20;99.90
31799;DHT22;18374;51.136;3.502;2023-02-01T17:32:26;8.20;99.90
31799;DHT22;18374;51.136;3.502;2023-02-01T17:34:55;8.20;99.90
31799;DHT22;18374;51.136;3.502;2023-02-01T17:37:28;8.20;99.90
31799;DHT22;18374;51.136;3.502;2023-02-01T17:40:11;8.20;99.90
31799;DHT22;18374;51.136;3.502;2023-02-01T17:42:47;8.20;99.90
31799;DHT22;18374;51.136;3.502;2023-02-01T17:46:01;8.20;99.90
31799;DHT22;18374;51.136;3.502;2023-02-01T17:48:58;8.20;99.90
31799;DHT22;18374;51.136;3.502;2023-02-01T17:51:36;8.20;99.90
31799;DHT22;18374;51.136;3.502;2023-02-01T17:54:12;8.20;99.90
31799;DHT22;18374;51.136;3.502;2023-02-01T17:56:45;8.20;99.90
31799;DHT22;18374;51.136;3.502;2023-02-01T17:59:22;8.20;99.90
31799;DHT22;18374;51.136;3.502;2023-02-01T18:02:02;8.20;99.90
31799;DHT22;18374;51.136;3.502;2023-02-01T18:04:35;8.20;99.90
31799;DHT22;18374;51.136;3.502;2023-02-01T18:07:09;8.20;99.90
31799;DHT22;18374;51.136;3.502;2023-02-01T18:09:45;8.10;99.90
31799;DHT22;18374;51.136;3.502;2023-02-01T18:12:21;8.10;99.90
31799;DHT22;18374;51.136;3.502;2023-02-01T18:15:00;8.10;99.90
31799;DHT22;18374;51.136;3.502;2023-02-01T18:17:31;8.10;99.90
31799;DHT22;18374;51.136;3.502;2023-02-01T18:20:30;8.10;99.90
31799;DHT22;18374;51.136;3.502;2023-02-01T18:23:03;8.10;99.90
31799;DHT22;18374;51.136;3.502;2023-02-01T18:25:47;8.10;99.90
31799;DHT22;18374;51.136;3.502;2023-02-01T18:28:20;8.10;99.90
31799;DHT22;18374;51.136;3.502;2023-02-01T18:31:05;8.10;99.90
31799;DHT22;18374;51.136;3.502;2023-02-01T18:33:40;8.10;99.90
31799;DHT22;18374;51.136;3.502;2023-02-01T18:36:18;8.10;99.90
31799;DHT22;18374;51.136;3.502;2023-02-01T18:42:01;8.10;99.90
31799;DHT22;18374;51.136;3.502;2023-02-01T18:44:39;8.10;99.90
31799;DHT22;18374;51.136;3.502;2023-02-01T18:47:10;8.10;99.90
31799;DHT22;18374;51.136;3.502;2023-02-01T18:49:39;8.10;99.90
31799;DHT22;18374;51.136;3.502;2023-02-01T18:52:15;8.10;99.90
31799;DHT22;18374;51.136;3.502;2023-02-01T18:54:49;8.10;99.90
31799;DHT22;18374;51.136;3.502;2023-02-01T18:57:26;8.10;99.90
31799;DHT22;18374;51.136;3.502;2023-02-01T18:59:56;8.10;99.90
31799;DHT22;18374;51.136;3.502;2023-02-01T19:02:25;8.10;99.90
31799;DHT22;18374;51.136;3.502;2023-02-01T19:04:54;8.10;99.90
31799;DHT22;18374;51.136;3.502;2023-02-01T19:07:25;8.10;99.90